createdAt,value
2022-11-30T00:03:43.662Z,6.31
2022-11-30T00:08:44.961Z,6.13
2022-11-30T00:13:46.833Z,6.18
2022-11-30T00:18:48.227Z,6.11
2022-11-30T00:23:49.657Z,6.19
2022-11-30T00:28:51.112Z,6.12
2022-11-30T00:33:52.514Z,6.16
2022-11-30T00:38:54.077Z,6.20
2022-11-30T00:43:55.386Z,6.10
2022-11-30T00:48:56.839Z,6.04
2022-11-30T00:53:58.164Z,5.96
2022-11-30T00:58:59.502Z,6.08
2022-11-30T01:04:00.824Z,6.15
2022-11-30T01:09:03.007Z,6.10
2022-11-30T01:14:04.365Z,6.11
2022-11-30T01:19:06.070Z,6.06
2022-11-30T01:24:07.634Z,5.94
2022-11-30T01:29:08.924Z,5.99
2022-11-30T01:34:10.219Z,6.13
2022-11-30T01:39:11.531Z,6.01
2022-11-30T01:44:19.819Z,6.07
2022-11-30T01:49:26.627Z,6.07
2022-11-30T01:54:48.608Z,6.05
2022-11-30T01:59:52.105Z,6.08
2022-11-30T02:04:53.638Z,6.10
2022-11-30T02:09:54.967Z,6.02
2022-11-30T02:14:59.112Z,6.10
2022-11-30T02:20:13.980Z,6.01
2022-11-30T02:25:34.297Z,6.02
2022-11-30T02:30:37.932Z,6.03
2022-11-30T02:35:42.433Z,6.03
2022-11-30T02:40:43.787Z,5.97
2022-11-30T02:45:50.495Z,5.96
2022-11-30T02:50:54.212Z,5.95
2022-11-30T02:55:55.722Z,5.89
2022-11-30T03:00:57.436Z,5.79
2022-11-30T03:05:58.794Z,5.93
2022-11-30T03:11:03.938Z,5.85
2022-11-30T03:16:06.287Z,5.86
2022-11-30T03:21:08.114Z,5.94
2022-11-30T03:26:09.439Z,5.82
2022-11-30T03:31:11.570Z,5.76
2022-11-30T03:36:13.129Z,5.74
2022-11-30T03:41:16.420Z,5.76
2022-11-30T03:46:17.777Z,5.80
2022-11-30T03:51:19.241Z,5.78
2022-11-30T03:56:20.664Z,5.78
2022-11-30T04:01:23.607Z,5.91
2022-11-30T04:06:25.215Z,5.79
2022-11-30T04:11:26.577Z,5.81
2022-11-30T04:16:27.970Z,5.80
2022-11-30T04:21:29.525Z,5.82
2022-11-30T04:26:30.873Z,5.76
2022-11-30T04:31:32.263Z,5.89
2022-11-30T04:36:33.597Z,5.77
2022-11-30T04:41:34.923Z,5.85
2022-11-30T04:46:36.722Z,5.79
2022-11-30T04:51:38.080Z,5.88
2022-11-30T04:56:39.394Z,5.90
2022-11-30T05:01:40.784Z,5.89
2022-11-30T05:06:42.174Z,5.82
2022-11-30T05:11:43.597Z,5.91
2022-11-30T05:16:47.203Z,5.83
2022-11-30T05:21:48.536Z,5.80
2022-11-30T05:26:49.854Z,5.80
2022-11-30T05:31:51.274Z,5.98
2022-11-30T05:36:52.667Z,6.05
2022-11-30T05:41:54.112Z,5.89
2022-11-30T05:46:55.572Z,5.95
2022-11-30T05:51:56.955Z,5.91
2022-11-30T05:56:58.327Z,5.88
2022-11-30T06:01:59.799Z,6.01
2022-11-30T06:07:01.231Z,6.01
2022-11-30T06:12:02.575Z,6.06
2022-11-30T06:17:03.977Z,5.96
2022-11-30T06:22:05.297Z,5.96
2022-11-30T06:27:06.625Z,5.91
2022-11-30T06:32:08.414Z,5.95
2022-11-30T06:37:09.863Z,6.03
2022-11-30T06:42:11.270Z,6.01
2022-11-30T06:47:12.604Z,5.98
2022-11-30T06:52:14.179Z,6.09
2022-11-30T06:57:15.543Z,6.15
2022-11-30T07:02:18.525Z,6.15
2022-11-30T07:07:20.340Z,6.06
2022-11-30T07:12:21.730Z,6.04
2022-11-30T07:17:23.171Z,6.02
2022-11-30T07:22:24.500Z,6.12
2022-11-30T07:27:25.829Z,6.22
2022-11-30T07:32:27.251Z,6.24
2022-11-30T07:37:28.666Z,6.08
2022-11-30T07:42:30.704Z,6.22
2022-11-30T07:47:32.024Z,6.15
2022-11-30T07:52:33.364Z,6.17
2022-11-30T07:57:34.701Z,6.27
2022-11-30T08:02:36.059Z,6.22
2022-11-30T08:07:37.529Z,6.17
2022-11-30T08:12:38.872Z,6.17
2022-11-30T08:17:40.442Z,6.20
2022-11-30T08:22:41.744Z,6.25
2022-11-30T08:27:43.054Z,6.30
2022-11-30T08:32:46.542Z,6.38
2022-11-30T08:37:47.876Z,6.36
2022-11-30T08:42:49.205Z,6.54
2022-11-30T08:47:50.568Z,6.58
2022-11-30T08:52:53.274Z,6.56
2022-11-30T08:57:54.603Z,6.69
2022-11-30T09:02:56.270Z,6.72
2022-11-30T09:07:57.660Z,6.84
2022-11-30T09:12:59.066Z,6.93
2022-11-30T09:18:00.388Z,6.90
2022-11-30T09:23:01.696Z,6.84
2022-11-30T09:28:04.963Z,6.83
2022-11-30T09:33:09.652Z,6.63
2022-11-30T09:38:10.966Z,6.66
2022-11-30T09:43:28.287Z,6.55
2022-11-30T09:48:48.606Z,6.51
2022-11-30T09:53:52.932Z,6.46
2022-11-30T09:58:56.120Z,6.49
2022-11-30T10:03:58.274Z,6.56
2022-11-30T10:09:08.984Z,6.56
2022-11-30T10:14:10.269Z,6.57
2022-11-30T10:19:11.621Z,6.53
2022-11-30T10:24:22.125Z,6.65
2022-11-30T10:29:32.598Z,6.63
2022-11-30T10:34:35.640Z,6.65
2022-11-30T10:39:40.637Z,6.52
2022-11-30T10:44:45.052Z,6.41
2022-11-30T10:49:49.004Z,6.31
2022-11-30T10:54:53.019Z,6.21
2022-11-30T10:59:55.633Z,6.11
2022-11-30T11:05:15.038Z,6.02
2022-11-30T11:10:17.759Z,6.11
2022-11-30T11:15:27.000Z,6.23
2022-11-30T11:20:30.152Z,6.07
2022-11-30T11:25:32.924Z,6.15
2022-11-30T11:30:35.300Z,6.20
2022-11-30T11:35:39.681Z,6.24
2022-11-30T11:40:50.646Z,6.14
2022-11-30T11:45:54.097Z,6.31
2022-11-30T11:51:08.108Z,6.26
2022-11-30T11:56:26.444Z,6.19
2022-11-30T12:01:46.465Z,6.08
2022-11-30T12:06:50.543Z,6.19
2022-11-30T12:11:51.933Z,6.17
2022-11-30T12:16:59.105Z,6.08
2022-11-30T12:22:00.510Z,6.15
2022-11-30T12:27:13.676Z,6.20
2022-11-30T12:32:14.975Z,6.01
2022-11-30T12:37:22.056Z,5.98
2022-11-30T12:42:23.792Z,6.02
2022-11-30T12:47:43.969Z,6.03
2022-11-30T12:52:55.715Z,5.93
2022-11-30T12:57:57.117Z,5.95
2022-11-30T13:03:34.082Z,6.10
2022-11-30T13:08:45.240Z,6.06
2022-11-30T13:13:50.438Z,6.09
2022-11-30T13:18:52.692Z,6.03
2022-11-30T13:23:54.307Z,6.17
2022-11-30T13:29:16.340Z,6.23
2022-11-30T13:34:28.448Z,6.13
2022-11-30T13:39:31.499Z,6.12
2022-11-30T13:44:37.218Z,6.08
2022-11-30T13:49:38.630Z,6.21
2022-11-30T13:54:39.987Z,6.13
2022-11-30T14:00:00.638Z,6.29
2022-11-30T14:05:17.533Z,6.10
2022-11-30T14:10:29.289Z,6.05
2022-11-30T14:15:39.675Z,6.01
2022-11-30T14:20:40.964Z,6.21
2022-11-30T14:25:46.917Z,5.96
2022-11-30T14:30:48.773Z,6.02
2022-11-30T14:35:54.066Z,6.11
2022-11-30T14:40:55.466Z,5.98
2022-11-30T14:46:05.462Z,5.93
2022-11-30T14:51:10.784Z,6.06
2022-11-30T14:56:15.190Z,5.99
2022-11-30T15:01:21.663Z,6.01
2022-11-30T15:06:27.699Z,5.96
2022-11-30T15:11:29.178Z,5.94
2022-11-30T15:16:30.646Z,5.93
2022-11-30T15:21:32.278Z,5.97
2022-11-30T15:26:54.271Z,5.99
2022-11-30T15:31:57.351Z,6.02
2022-11-30T15:36:59.656Z,5.90
2022-11-30T15:42:02.642Z,5.84
2022-11-30T15:47:05.503Z,5.84
2022-11-30T15:52:09.829Z,5.94
2022-11-30T15:57:11.685Z,5.87
2022-11-30T16:02:24.766Z,5.84
2022-11-30T16:07:34.248Z,5.92
2022-11-30T16:12:35.617Z,5.77
2022-11-30T16:17:36.946Z,5.78
2022-11-30T16:22:38.799Z,5.81
2022-11-30T16:27:40.335Z,5.79
2022-11-30T16:32:42.115Z,5.81
2022-11-30T16:37:43.440Z,5.83
2022-11-30T16:42:45.132Z,5.85
2022-11-30T16:47:46.500Z,5.82
2022-11-30T16:52:47.859Z,5.85
2022-11-30T16:57:49.429Z,5.84
2022-11-30T17:03:02.704Z,5.79
2022-11-30T17:08:04.177Z,5.84
2022-11-30T17:13:05.889Z,5.77
2022-11-30T17:18:07.207Z,5.96
2022-11-30T17:23:08.527Z,5.93
2022-11-30T17:28:09.844Z,5.82
2022-11-30T17:33:11.208Z,5.81
2022-11-30T17:38:12.515Z,5.87
2022-11-30T17:43:14.810Z,5.98
2022-11-30T17:48:16.155Z,5.89
2022-11-30T17:53:18.444Z,5.97
2022-11-30T17:58:19.862Z,5.87
2022-11-30T18:03:21.169Z,5.94
2022-11-30T18:08:22.485Z,5.93
2022-11-30T18:13:23.842Z,5.92
2022-11-30T18:18:25.153Z,5.83
2022-11-30T18:23:26.477Z,5.91
2022-11-30T18:28:28.029Z,5.97
2022-11-30T18:33:29.357Z,5.95
2022-11-30T18:38:35.877Z,5.99
2022-11-30T18:43:39.126Z,5.97
2022-11-30T18:48:41.462Z,5.89
2022-11-30T18:53:43.193Z,5.89
2022-11-30T18:58:45.214Z,5.95
2022-11-30T19:03:50.403Z,6.16
2022-11-30T19:08:51.719Z,6.05
2022-11-30T19:13:54.511Z,5.93
2022-11-30T19:18:58.618Z,5.87
2022-11-30T19:24:00.080Z,5.83
2022-11-30T19:29:01.633Z,5.92
2022-11-30T19:34:07.806Z,5.92
2022-11-30T19:39:13.565Z,5.91
2022-11-30T19:44:15.273Z,5.88
2022-11-30T19:49:16.598Z,6.03
2022-11-30T19:54:17.918Z,5.91
2022-11-30T19:59:19.232Z,5.91
2022-11-30T20:04:20.690Z,5.94
2022-11-30T20:09:22.023Z,5.87
2022-11-30T20:14:23.409Z,5.97
2022-11-30T20:19:24.755Z,5.95
2022-11-30T20:24:26.194Z,6.05
2022-11-30T20:29:27.521Z,6.01
2022-11-30T20:34:34.091Z,5.91
2022-11-30T20:39:38.882Z,5.94
2022-11-30T20:44:43.944Z,5.87
2022-11-30T20:49:45.274Z,5.86
2022-11-30T20:54:46.873Z,5.87
2022-11-30T20:59:48.408Z,5.84
2022-11-30T21:04:49.822Z,5.77
2022-11-30T21:09:51.822Z,5.80
2022-11-30T21:14:53.144Z,5.93
2022-11-30T21:19:54.492Z,5.78
2022-11-30T21:24:55.826Z,5.79
2022-11-30T21:29:57.150Z,5.89
2022-11-30T21:34:58.456Z,5.83
2022-11-30T21:39:59.767Z,5.86
2022-11-30T21:45:01.091Z,5.83
2022-11-30T21:50:02.607Z,5.77
2022-11-30T21:55:04.500Z,5.75
2022-11-30T22:00:06.642Z,5.79
2022-11-30T22:05:08.253Z,5.78
2022-11-30T22:10:09.910Z,5.78
2022-11-30T22:15:11.361Z,5.74
2022-11-30T22:20:13.063Z,5.74
2022-11-30T22:25:14.425Z,5.80
2022-11-30T22:30:15.834Z,5.79
2022-11-30T22:35:17.161Z,5.69
2022-11-30T22:40:18.627Z,5.64
2022-11-30T22:45:19.937Z,5.71
2022-11-30T22:50:21.244Z,5.64
2022-11-30T22:55:22.663Z,5.62
2022-11-30T23:00:24.022Z,5.64
2022-11-30T23:05:25.345Z,5.72
2022-11-30T23:10:26.694Z,5.73
2022-11-30T23:15:28.046Z,5.72
2022-11-30T23:20:29.398Z,5.68
2022-11-30T23:25:30.796Z,5.66
2022-11-30T23:30:32.677Z,5.72
2022-11-30T23:35:34.008Z,5.88
2022-11-30T23:40:35.338Z,5.77
2022-11-30T23:45:36.705Z,5.77
2022-11-30T23:50:38.050Z,5.80
2022-11-30T23:55:39.440Z,5.76
